createdAt,value
2023-05-14T00:01:04.047Z,34.00
2023-05-14T00:03:32.022Z,33.00
2023-05-14T00:05:59.986Z,35.50
2023-05-14T00:08:27.844Z,39.50
2023-05-14T00:10:55.779Z,30.00
2023-05-14T00:13:23.934Z,31.00
2023-05-14T00:18:19.824Z,31.00
2023-05-14T00:20:47.858Z,33.00
2023-05-14T00:23:16.224Z,31.00
2023-05-14T00:25:44.099Z,30.00
2023-05-14T00:28:12.003Z,33.00
2023-05-14T00:30:40.284Z,36.50
2023-05-14T00:33:08.455Z,30.50
2023-05-14T00:35:36.752Z,34.00
2023-05-14T00:38:04.745Z,28.00
2023-05-14T00:40:32.889Z,27.00
2023-05-14T00:43:01.565Z,32.00
2023-05-14T00:45:29.428Z,35.50
2023-05-14T00:47:57.417Z,33.00
2023-05-14T00:50:26.279Z,29.00
2023-05-14T00:52:54.661Z,31.00
2023-05-14T00:55:22.572Z,35.00
2023-05-14T00:57:50.491Z,29.00
2023-05-14T01:00:19.231Z,30.00
2023-05-14T01:02:47.391Z,31.67
2023-05-14T01:07:59.374Z,31.50
2023-05-14T01:10:39.684Z,39.00
2023-05-14T01:13:16.163Z,32.50
2023-05-14T01:15:44.167Z,36.00
2023-05-14T01:18:14.325Z,28.00
2023-05-14T01:20:42.391Z,34.00
2023-05-14T01:23:10.285Z,29.50
2023-05-14T01:25:38.495Z,35.00
2023-05-14T01:28:18.015Z,32.00
2023-05-14T01:31:00.973Z,31.00
2023-05-14T01:33:29.692Z,38.00
2023-05-14T01:35:58.850Z,33.00
2023-05-14T01:38:27.611Z,38.00
2023-05-14T01:40:55.696Z,33.00
2023-05-14T01:43:24.230Z,32.00
2023-05-14T01:45:52.223Z,33.00
2023-05-14T01:48:20.121Z,33.50
2023-05-14T01:50:48.192Z,31.00
2023-05-14T01:53:16.038Z,27.33
2023-05-14T01:55:43.900Z,36.00
2023-05-14T01:58:11.919Z,38.00
2023-05-14T02:00:39.802Z,34.00
2023-05-14T02:03:07.778Z,35.00
2023-05-14T02:05:35.954Z,39.00
2023-05-14T02:08:03.949Z,41.50
2023-05-14T02:10:31.829Z,36.00
2023-05-14T02:12:59.793Z,42.33
2023-05-14T02:15:28.428Z,39.00
2023-05-14T02:17:56.600Z,36.33
2023-05-14T02:20:24.911Z,38.67
2023-05-14T02:22:53.203Z,37.50
2023-05-14T02:25:21.703Z,38.00
2023-05-14T02:27:49.752Z,46.00
2023-05-14T02:30:18.341Z,38.00
2023-05-14T02:32:46.412Z,42.50
2023-05-14T02:35:14.303Z,40.00
2023-05-14T02:37:42.557Z,40.00
2023-05-14T02:40:11.449Z,37.00
2023-05-14T02:42:39.516Z,42.00
2023-05-14T02:45:08.215Z,36.50
2023-05-14T02:47:37.974Z,40.00
2023-05-14T02:50:07.463Z,44.33
2023-05-14T02:52:35.995Z,40.00
2023-05-14T02:55:04.979Z,38.00
2023-05-14T02:57:33.031Z,40.00
2023-05-14T03:00:01.505Z,39.00
2023-05-14T03:02:30.511Z,41.50
2023-05-14T03:04:59.763Z,42.00
2023-05-14T03:07:27.868Z,45.00
2023-05-14T03:09:55.999Z,40.00
2023-05-14T03:12:23.836Z,39.50
2023-05-14T03:14:51.911Z,42.00
2023-05-14T03:17:20.026Z,37.00
2023-05-14T03:19:48.053Z,39.00
2023-05-14T03:24:43.992Z,35.00
2023-05-14T03:27:12.063Z,38.00
2023-05-14T03:29:39.950Z,36.50
2023-05-14T03:32:07.924Z,35.50
2023-05-14T03:34:35.980Z,40.00
2023-05-14T03:37:04.448Z,40.00
2023-05-14T03:42:00.334Z,35.00
2023-05-14T03:44:28.266Z,35.00
2023-05-14T03:46:56.280Z,34.50
2023-05-14T03:49:24.984Z,30.00
2023-05-14T03:51:52.840Z,33.00
2023-05-14T03:54:20.944Z,40.50
2023-05-14T03:56:48.801Z,37.00
2023-05-14T03:59:16.780Z,35.00
2023-05-14T04:01:44.855Z,34.00
2023-05-14T04:04:12.836Z,34.00
2023-05-14T04:06:41.027Z,35.00
2023-05-14T04:09:11.017Z,38.33
2023-05-14T04:11:39.187Z,34.00
2023-05-14T04:14:07.465Z,33.00
2023-05-14T04:16:35.691Z,40.00
2023-05-14T04:19:05.784Z,35.00
2023-05-14T04:21:33.824Z,34.50
2023-05-14T04:24:01.890Z,36.00
2023-05-14T04:26:29.732Z,40.00
2023-05-14T04:28:58.446Z,34.00
2023-05-14T04:31:26.314Z,38.00
2023-05-14T04:33:54.372Z,41.00
2023-05-14T04:36:22.348Z,34.00
2023-05-14T04:38:50.831Z,31.00
2023-05-14T04:41:18.757Z,34.00
2023-05-14T04:43:47.331Z,38.00
2023-05-14T04:46:15.614Z,35.00
2023-05-14T04:48:43.822Z,44.00
2023-05-14T04:51:11.811Z,38.00
2023-05-14T04:53:39.766Z,30.00
2023-05-14T04:56:07.780Z,33.00
2023-05-14T04:58:36.112Z,38.00
2023-05-14T05:01:05.232Z,35.00
2023-05-14T05:03:33.453Z,28.67
2023-05-14T05:06:01.460Z,32.00
2023-05-14T05:08:29.559Z,31.00
2023-05-14T05:10:57.364Z,34.00
2023-05-14T05:13:25.353Z,34.50
2023-05-14T05:15:53.185Z,35.00
2023-05-14T05:18:21.297Z,35.00
2023-05-14T05:20:49.191Z,36.00
2023-05-14T05:23:17.128Z,36.50
2023-05-14T05:25:44.949Z,34.50
2023-05-14T05:28:12.834Z,32.00
2023-05-14T05:30:41.090Z,29.00
2023-05-14T05:33:09.221Z,35.50
2023-05-14T05:35:37.911Z,36.50
2023-05-14T05:38:05.862Z,36.50
2023-05-14T05:40:34.145Z,41.00
2023-05-14T05:43:02.311Z,34.00
2023-05-14T05:47:58.182Z,45.00
2023-05-14T05:50:26.380Z,41.00
2023-05-14T05:52:54.296Z,41.00
2023-05-14T05:55:22.358Z,35.00
2023-05-14T05:57:50.468Z,35.00
2023-05-14T06:00:19.424Z,40.00
2023-05-14T06:02:47.259Z,33.00
2023-05-14T06:05:15.400Z,39.00
2023-05-14T06:07:43.370Z,41.50
2023-05-14T06:10:11.407Z,36.50
2023-05-14T06:12:39.470Z,48.50
2023-05-14T06:15:08.004Z,30.00
2023-05-14T06:17:35.976Z,37.00
2023-05-14T06:20:05.596Z,38.33
2023-05-14T06:22:34.397Z,34.00
2023-05-14T06:25:02.305Z,31.00
2023-05-14T06:27:30.782Z,29.00
2023-05-14T06:29:58.726Z,34.50
2023-05-14T06:32:26.619Z,34.00
2023-05-14T06:34:54.620Z,36.00
2023-05-14T06:37:22.576Z,33.00
2023-05-14T06:39:51.014Z,40.00
2023-05-14T06:42:19.093Z,43.00
2023-05-14T06:44:48.689Z,34.00
2023-05-14T06:47:16.683Z,35.00
2023-05-14T06:49:44.838Z,42.50
2023-05-14T06:52:12.814Z,42.00
2023-05-14T06:54:40.872Z,40.00
2023-05-14T06:57:08.933Z,51.00
2023-05-14T07:02:04.778Z,54.50
2023-05-14T07:04:33.213Z,44.50
2023-05-14T07:07:01.442Z,53.00
2023-05-14T07:09:29.366Z,44.00
2023-05-14T07:11:57.282Z,40.00
2023-05-14T07:14:25.443Z,39.50
2023-05-14T07:16:53.438Z,36.00
2023-05-14T07:19:22.373Z,40.50
2023-05-14T07:21:51.038Z,38.50
2023-05-14T07:24:19.256Z,41.00
2023-05-14T07:26:47.334Z,42.00
2023-05-14T07:29:15.506Z,43.00
2023-05-14T07:31:43.638Z,42.50
2023-05-14T07:34:12.769Z,36.00
2023-05-14T07:36:41.353Z,43.00
2023-05-14T07:39:09.538Z,31.00
2023-05-14T07:41:37.694Z,39.00
2023-05-14T07:44:05.835Z,37.00
2023-05-14T07:46:34.059Z,37.00
2023-05-14T07:49:02.102Z,40.00
2023-05-14T07:51:30.461Z,39.00
2023-05-14T07:53:58.453Z,45.00
2023-05-14T07:56:26.431Z,49.00
2023-05-14T07:58:54.514Z,36.00
2023-05-14T08:01:22.563Z,37.00
2023-05-14T08:03:50.941Z,35.50
2023-05-14T08:06:21.062Z,42.00
2023-05-14T08:08:49.287Z,40.00
2023-05-14T08:13:45.700Z,38.00
2023-05-14T08:16:13.657Z,41.00
2023-05-14T08:18:41.707Z,41.00
2023-05-14T08:21:09.905Z,41.00
2023-05-14T08:23:37.861Z,34.50
2023-05-14T08:26:05.965Z,36.00
2023-05-14T08:28:34.097Z,38.50
2023-05-14T08:31:01.924Z,42.00
2023-05-14T08:33:29.951Z,34.00
2023-05-14T08:36:00.494Z,38.50
2023-05-14T08:41:00.721Z,37.00
2023-05-14T08:43:48.860Z,34.00
2023-05-14T08:46:16.725Z,32.50
2023-05-14T08:48:44.755Z,36.00
2023-05-14T08:51:12.841Z,34.00
2023-05-14T08:53:40.937Z,31.00
2023-05-14T08:56:09.218Z,33.00
2023-05-14T08:58:37.397Z,36.00
2023-05-14T09:01:05.857Z,33.00
2023-05-14T09:03:33.840Z,32.00
2023-05-14T09:06:02.311Z,33.50
2023-05-14T09:08:30.802Z,31.00
2023-05-14T09:10:58.767Z,31.50
2023-05-14T09:13:28.299Z,40.00
2023-05-14T09:15:56.374Z,36.00
2023-05-14T09:18:25.367Z,32.00
2023-05-14T09:20:53.819Z,35.00
2023-05-14T09:23:21.775Z,37.00
2023-05-14T09:25:49.597Z,29.00
2023-05-14T09:28:18.605Z,31.00
2023-05-14T09:30:52.567Z,35.00
2023-05-14T09:33:27.366Z,40.00
2023-05-14T09:35:58.855Z,39.00
2023-05-14T09:38:30.966Z,35.00
2023-05-14T09:40:59.789Z,32.00
2023-05-14T09:43:28.458Z,36.33
2023-05-14T09:45:57.978Z,39.00
2023-05-14T09:48:26.414Z,42.50
2023-05-14T09:50:54.391Z,39.00
2023-05-14T09:53:22.282Z,42.00
2023-05-14T09:55:50.968Z,39.50
2023-05-14T09:58:19.025Z,41.00
2023-05-14T10:00:48.194Z,34.50
2023-05-14T10:03:18.826Z,32.00
2023-05-14T10:05:48.768Z,26.25
2023-05-14T10:08:26.901Z,35.00
2023-05-14T10:10:56.188Z,42.00
2023-05-14T10:13:24.884Z,39.00
2023-05-14T10:16:08.904Z,31.00
2023-05-14T10:18:41.410Z,28.00
2023-05-14T10:21:09.429Z,30.00
2023-05-14T10:23:38.188Z,26.50
2023-05-14T10:26:06.318Z,33.00
2023-05-14T10:28:34.447Z,39.00
2023-05-14T10:31:02.473Z,35.00
2023-05-14T10:33:30.502Z,32.50
2023-05-14T10:36:03.728Z,29.00
2023-05-14T10:38:38.287Z,27.00
2023-05-14T10:41:10.217Z,32.00
2023-05-14T10:43:39.045Z,31.00
2023-05-14T10:46:08.279Z,31.00
2023-05-14T10:48:37.189Z,31.00
2023-05-14T10:51:06.484Z,34.00
2023-05-14T10:53:43.877Z,28.00
2023-05-14T10:56:14.719Z,29.00
2023-05-14T10:58:43.999Z,34.00
2023-05-14T11:01:12.820Z,31.00
2023-05-14T11:06:15.087Z,25.50
2023-05-14T11:08:44.094Z,29.00
2023-05-14T11:11:12.135Z,24.00
2023-05-14T11:13:40.328Z,26.00
2023-05-14T11:16:21.938Z,26.00
2023-05-14T11:19:02.261Z,26.50
2023-05-14T11:21:31.113Z,28.00
2023-05-14T11:26:31.871Z,23.50
2023-05-14T11:28:59.910Z,22.50
2023-05-14T11:31:27.957Z,24.00
2023-05-14T11:33:56.122Z,24.00
2023-05-14T11:36:24.095Z,24.00
2023-05-14T11:38:52.726Z,32.00
2023-05-14T11:41:23.328Z,24.00
2023-05-14T11:43:51.555Z,24.00
2023-05-14T11:46:19.780Z,24.00
2023-05-14T11:51:16.231Z,25.00
2023-05-14T11:53:45.075Z,30.50
2023-05-14T11:56:16.392Z,23.00
2023-05-14T12:01:16.401Z,25.50
2023-05-14T12:03:45.042Z,26.00
2023-05-14T12:06:13.043Z,26.00
2023-05-14T12:08:41.145Z,26.00
2023-05-14T12:11:09.268Z,27.50
2023-05-14T12:13:37.262Z,25.00
2023-05-14T12:16:05.442Z,24.00
2023-05-14T12:18:33.728Z,25.00
2023-05-14T12:21:07.998Z,25.50
2023-05-14T12:26:08.198Z,27.00
2023-05-14T12:28:38.503Z,22.00
2023-05-14T12:31:07.038Z,20.50
2023-05-14T12:33:34.938Z,23.00
2023-05-14T12:38:50.288Z,24.67
2023-05-14T12:41:18.365Z,26.00
2023-05-14T12:43:47.907Z,24.00
2023-05-14T12:46:16.776Z,22.00
2023-05-14T12:48:44.841Z,23.00
2023-05-14T12:51:12.913Z,25.00
2023-05-14T12:53:41.403Z,24.00
2023-05-14T12:56:09.565Z,27.00
2023-05-14T12:58:37.509Z,27.00
2023-05-14T13:01:05.668Z,26.00
2023-05-14T13:03:33.800Z,22.00
2023-05-14T13:06:01.871Z,26.00
2023-05-14T13:08:29.765Z,24.00
2023-05-14T13:10:57.672Z,21.00
2023-05-14T13:13:25.649Z,26.00
2023-05-14T13:15:53.548Z,21.00
2023-05-14T13:18:21.604Z,25.50
2023-05-14T13:20:49.534Z,24.00
2023-05-14T13:23:17.342Z,22.00
2023-05-14T13:25:46.522Z,22.33
2023-05-14T13:28:16.228Z,24.50
2023-05-14T13:31:03.111Z,26.50
2023-05-14T13:33:30.979Z,23.00
2023-05-14T13:35:59.082Z,22.00
2023-05-14T13:38:27.035Z,26.00
2023-05-14T13:40:57.366Z,24.00
2023-05-14T13:43:25.130Z,25.00
2023-05-14T13:45:53.078Z,24.00
2023-05-14T13:48:21.061Z,24.00
2023-05-14T13:50:49.862Z,22.00
2023-05-14T13:53:19.461Z,24.00
2023-05-14T13:55:49.169Z,19.50
2023-05-14T13:58:17.450Z,24.00
2023-05-14T14:00:45.729Z,18.33
2023-05-14T14:03:13.695Z,19.50
2023-05-14T14:05:41.885Z,22.00
2023-05-14T14:08:22.725Z,24.00
2023-05-14T14:10:52.509Z,25.00
2023-05-14T14:13:21.408Z,23.00
2023-05-14T14:15:50.044Z,21.00
2023-05-14T14:18:18.120Z,24.00
2023-05-14T14:20:46.156Z,21.00
2023-05-14T14:23:14.134Z,23.00
2023-05-14T14:25:42.108Z,24.00
2023-05-14T14:28:10.486Z,25.00
2023-05-14T14:30:38.758Z,24.00
2023-05-14T14:33:07.112Z,23.50
2023-05-14T14:35:35.923Z,24.00
2023-05-14T14:38:04.088Z,22.00
2023-05-14T14:40:33.884Z,21.00
2023-05-14T14:43:02.391Z,22.00
2023-05-14T14:45:30.528Z,23.00
2023-05-14T14:48:34.471Z,22.00
2023-05-14T14:51:02.648Z,24.00
2023-05-14T14:53:31.331Z,26.00
2023-05-14T14:56:00.624Z,22.00
2023-05-14T14:58:28.802Z,28.00
2023-05-14T15:00:57.174Z,26.00
2023-05-14T15:03:25.301Z,23.00
2023-05-14T15:05:53.912Z,21.00
2023-05-14T15:08:25.810Z,21.50
2023-05-14T15:10:57.355Z,24.50
2023-05-14T15:13:25.939Z,22.00
2023-05-14T15:15:54.037Z,22.00
2023-05-14T15:18:21.867Z,20.00
2023-05-14T15:20:50.266Z,24.00
2023-05-14T15:23:18.726Z,18.00
2023-05-14T15:25:47.059Z,21.50
2023-05-14T15:28:15.075Z,21.00
2023-05-14T15:30:43.356Z,24.00
2023-05-14T15:33:11.561Z,20.00
2023-05-14T15:35:39.588Z,23.00
2023-05-14T15:38:07.614Z,21.00
2023-05-14T15:40:35.770Z,25.67
2023-05-14T15:45:31.461Z,26.00
2023-05-14T15:47:59.372Z,24.00
2023-05-14T15:50:27.467Z,19.50
2023-05-14T15:52:55.389Z,23.00
2023-05-14T15:57:51.435Z,19.50
2023-05-14T16:00:20.261Z,23.00
2023-05-14T16:02:48.462Z,22.50
2023-05-14T16:05:16.482Z,20.67
2023-05-14T16:07:44.314Z,21.00
2023-05-14T16:10:12.477Z,21.50
2023-05-14T16:12:40.456Z,26.50
2023-05-14T16:15:09.512Z,20.50
2023-05-14T16:17:37.753Z,21.00
2023-05-14T16:20:06.599Z,25.00
2023-05-14T16:22:35.335Z,25.00
2023-05-14T16:25:04.973Z,25.00
2023-05-14T16:27:33.086Z,29.00
2023-05-14T16:30:00.911Z,22.00
2023-05-14T16:32:29.137Z,24.00
2023-05-14T16:34:57.188Z,29.00
2023-05-14T16:37:25.303Z,26.00
2023-05-14T16:39:53.737Z,25.00
2023-05-14T16:42:21.718Z,26.00
2023-05-14T16:44:49.891Z,22.00
2023-05-14T16:47:17.945Z,26.00
2023-05-14T16:49:45.871Z,29.00
2023-05-14T16:52:13.789Z,29.00
2023-05-14T16:54:41.743Z,27.00
2023-05-14T16:57:09.631Z,21.00
2023-05-14T16:59:37.675Z,22.50
2023-05-14T17:02:06.255Z,23.50
2023-05-14T17:04:38.832Z,23.00
2023-05-14T17:07:06.932Z,25.50
2023-05-14T17:09:35.002Z,24.00
2023-05-14T17:12:03.052Z,22.00
2023-05-14T17:14:31.841Z,23.00
2023-05-14T17:17:00.016Z,27.00
2023-05-14T17:19:27.939Z,25.00
2023-05-14T17:21:55.847Z,27.00
2023-05-14T17:24:23.867Z,27.00
2023-05-14T17:26:51.882Z,32.00
2023-05-14T17:29:19.844Z,43.00
2023-05-14T17:31:48.724Z,47.50
2023-05-14T17:34:17.791Z,35.50
2023-05-14T17:36:48.859Z,62.00
2023-05-14T17:41:44.800Z,48.00
2023-05-14T17:44:13.253Z,40.00
2023-05-14T17:46:42.376Z,34.00
2023-05-14T17:49:11.950Z,36.50
2023-05-14T17:51:39.947Z,34.50
2023-05-14T17:56:36.014Z,34.00
2023-05-14T17:59:04.240Z,33.00
2023-05-14T18:01:32.269Z,37.00
2023-05-14T18:04:00.507Z,48.00
2023-05-14T18:06:28.608Z,50.00
2023-05-14T18:08:59.237Z,49.00
2023-05-14T18:11:32.760Z,35.50
2023-05-14T18:14:01.068Z,47.00
2023-05-14T18:18:56.973Z,38.00
2023-05-14T18:23:53.194Z,32.00
2023-05-14T18:26:22.187Z,30.00
2023-05-14T18:28:50.112Z,37.00
2023-05-14T18:31:18.065Z,33.00
2023-05-14T18:33:46.515Z,39.00
2023-05-14T18:36:14.602Z,36.00
2023-05-14T18:38:42.444Z,31.00
2023-05-14T18:41:10.506Z,33.00
2023-05-14T18:43:38.479Z,33.00
2023-05-14T18:46:06.369Z,33.50
2023-05-14T18:48:34.620Z,34.00
2023-05-14T18:51:02.741Z,38.00
2023-05-14T18:53:31.563Z,39.50
2023-05-14T18:56:00.227Z,32.50
2023-05-14T18:58:28.339Z,36.00
2023-05-14T19:00:59.183Z,39.00
2023-05-14T19:03:27.248Z,39.00
2023-05-14T19:05:55.443Z,33.00
2023-05-14T19:08:23.492Z,34.00
2023-05-14T19:10:51.828Z,35.00
2023-05-14T19:13:19.881Z,33.00
2023-05-14T19:15:48.081Z,27.00
2023-05-14T19:18:17.692Z,38.00
2023-05-14T19:20:46.710Z,34.00
2023-05-14T19:23:14.679Z,45.00
2023-05-14T19:25:42.461Z,50.00
2023-05-14T19:28:10.518Z,35.00
2023-05-14T19:30:38.388Z,30.00
2023-05-14T19:33:06.392Z,30.00
2023-05-14T19:38:02.259Z,33.00
2023-05-14T19:40:30.257Z,26.00
2023-05-14T19:42:58.334Z,26.00
2023-05-14T19:45:26.337Z,29.50
2023-05-14T19:50:22.324Z,36.00
2023-05-14T19:52:50.365Z,31.00
2023-05-14T19:55:18.402Z,34.00
2023-05-14T19:57:46.318Z,31.00
2023-05-14T20:00:14.416Z,26.50
2023-05-14T20:02:43.321Z,33.00
2023-05-14T20:05:11.536Z,26.00
2023-05-14T20:10:10.797Z,37.50
2023-05-14T20:12:39.905Z,29.00
2023-05-14T20:15:08.454Z,30.00
2023-05-14T20:17:41.245Z,25.00
2023-05-14T20:20:10.997Z,27.50
2023-05-14T20:22:40.209Z,27.50
2023-05-14T20:25:10.925Z,27.50
2023-05-14T20:27:38.995Z,29.00
2023-05-14T20:30:09.154Z,24.00
2023-05-14T20:32:37.677Z,27.00
2023-05-14T20:35:07.862Z,25.00
2023-05-14T20:37:37.566Z,25.00
2023-05-14T20:40:07.318Z,30.00
2023-05-14T20:42:36.544Z,24.00
2023-05-14T20:45:07.006Z,24.00
2023-05-14T20:47:44.948Z,19.00
2023-05-14T20:50:15.876Z,24.50
2023-05-14T20:52:45.316Z,20.00
2023-05-14T20:55:14.774Z,24.00
2023-05-14T21:00:13.406Z,29.00
2023-05-14T21:02:42.419Z,23.00
2023-05-14T21:05:10.678Z,27.50
2023-05-14T21:07:39.495Z,30.00
2023-05-14T21:10:10.321Z,25.00
2023-05-14T21:12:42.824Z,46.00
2023-05-14T21:15:13.424Z,49.00
2023-05-14T21:17:44.157Z,53.00
2023-05-14T21:20:15.837Z,45.00
2023-05-14T21:22:47.293Z,47.00
2023-05-14T21:25:15.130Z,28.00
2023-05-14T21:27:45.433Z,43.00
2023-05-14T21:30:14.827Z,41.00
2023-05-14T21:32:49.037Z,31.50
2023-05-14T21:35:17.226Z,36.00
2023-05-14T21:37:45.184Z,36.00
2023-05-14T21:40:13.233Z,31.00
2023-05-14T21:42:41.142Z,28.00
2023-05-14T21:45:10.509Z,25.00
2023-05-14T21:47:38.574Z,24.00
2023-05-14T21:50:07.744Z,38.00
2023-05-14T21:52:37.972Z,37.00
2023-05-14T21:55:06.399Z,66.00
2023-05-14T21:57:34.849Z,76.50
2023-05-14T22:00:04.949Z,69.00
2023-05-14T22:02:32.834Z,45.00
2023-05-14T22:05:00.881Z,28.00
2023-05-14T22:07:29.061Z,22.00
2023-05-14T22:09:56.925Z,25.00
2023-05-14T22:12:24.898Z,25.00
2023-05-14T22:14:52.966Z,26.50
2023-05-14T22:17:21.985Z,26.50
2023-05-14T22:19:50.337Z,26.50
2023-05-14T22:22:18.456Z,28.50
2023-05-14T22:24:46.599Z,25.00
2023-05-14T22:27:14.453Z,26.50
2023-05-14T22:29:42.533Z,28.00
2023-05-14T22:32:10.589Z,26.00
2023-05-14T22:34:38.550Z,26.00
2023-05-14T22:37:06.698Z,22.00
2023-05-14T22:42:03.178Z,24.00
2023-05-14T22:44:31.105Z,24.00
2023-05-14T22:46:59.331Z,32.50
2023-05-14T22:49:27.250Z,26.00
2023-05-14T22:54:23.138Z,22.50
2023-05-14T22:56:51.604Z,24.00
2023-05-14T22:59:21.009Z,20.00
2023-05-14T23:01:50.980Z,23.00
2023-05-14T23:04:18.963Z,21.50
2023-05-14T23:06:47.201Z,21.00
2023-05-14T23:09:15.334Z,20.50
2023-05-14T23:11:43.405Z,26.00
2023-05-14T23:14:12.099Z,21.00
2023-05-14T23:16:40.372Z,23.00
2023-05-14T23:19:08.381Z,21.50
2023-05-14T23:21:36.463Z,25.50
2023-05-14T23:24:04.518Z,25.00
2023-05-14T23:26:32.455Z,28.50
2023-05-14T23:29:00.398Z,25.00
2023-05-14T23:31:28.437Z,26.00
2023-05-14T23:33:57.083Z,23.00
2023-05-14T23:36:25.015Z,21.00
2023-05-14T23:38:52.965Z,20.00
2023-05-14T23:41:21.891Z,23.00
2023-05-14T23:43:49.713Z,22.00
2023-05-14T23:46:17.833Z,25.00
2023-05-14T23:48:45.835Z,21.33
2023-05-14T23:53:41.647Z,20.00
2023-05-14T23:58:37.507Z,25.00
